Time;durP1;ratioP1;P1;durP2;ratioP2;P2;SDS_P1;SDS_P2;PMS_P1;PMS_P2;Temp;Humidity;BMP_temperature;BMP_pressure;BME280_temperature;BME280_humidity;BME280_pressure;Samples;Min_cycle;Max_cycle;Signal;HPM_P1;HPM_P2
2022/01/11 00:00:21;;;;;;;;;;;-0.60;99.90;;;;;;5082049;28;20305;-88
2022/01/11 00:02:46;;;;;;;;;;;0.20;99.90;;;;;;5081796;28;20269;-87
2022/01/11 00:05:51;;;;;;;;;;;-0.80;99.90;;;;;;5081691;28;19999;-88
2022/01/11 00:08:07;;;;;;;;;;;-0.70;99.90;;;;;;5098783;28;19928;-88
2022/01/11 00:10:47;;;;;;;;;;;-0.70;99.90;;;;;;5098257;28;19926;-88
2022/01/11 00:13:12;;;;;;;;;;;-0.70;99.90;;;;;;5100373;28;20370;-88
2022/01/11 00:15:38;;;;;;;;;;;-0.60;99.90;;;;;;5081841;28;19926;-88
2022/01/11 00:18:03;;;;;;;;;;;-0.80;99.90;;;;;;5081378;28;19920;-88
2022/01/11 00:20:29;;;;;;;;;;;1.10;99.90;;;;;;5114593;28;19978;-88
2022/01/11 00:25:31;;;;;;;;;;;-0.70;99.90;;;;;;5099157;28;19923;-88
2022/01/11 00:27:56;;;;;;;;;;;-0.70;99.90;;;;;;5081181;28;20369;-88
2022/01/11 00:30:22;;;;;;;;;;;-0.80;99.90;;;;;;5081059;28;19926;-88
2022/01/11 00:32:52;;;;;;;;;;;-0.80;99.90;;;;;;5098012;28;19924;-88
2022/01/11 00:35:22;;;;;;;;;;;-0.90;99.90;;;;;;5098553;28;19920;-88
2022/01/11 00:37:48;;;;;;;;;;;-0.90;99.90;;;;;;5081678;28;19924;-87
2022/01/11 00:40:13;;;;;;;;;;;-1.10;99.90;;;;;;5097846;28;19973;-87
2022/01/11 00:42:39;;;;;;;;;;;-1.00;99.90;;;;;;5097745;28;19920;-87
2022/01/11 00:45:05;;;;;;;;;;;-1.10;99.90;;;;;;5080725;28;19972;-87
2022/01/11 00:47:30;;;;;;;;;;;-1.00;99.90;;;;;;5080725;28;19975;-87
2022/01/11 00:49:56;;;;;;;;;;;1.00;99.90;;;;;;5097813;28;19919;-88
2022/01/11 00:52:21;;;;;;;;;;;-1.00;99.90;;;;;;5097367;28;19919;-87
2022/01/11 00:54:47;;;;;;;;;;;-1.10;99.90;;;;;;5097665;28;19973;-87
2022/01/11 00:57:12;;;;;;;;;;;-1.10;99.90;;;;;;5097478;28;20370;-87
2022/01/11 00:59:38;;;;;;;;;;;-1.10;99.90;;;;;;5097363;28;19924;-87
2022/01/11 01:02:03;;;;;;;;;;;-1.10;99.90;;;;;;5097538;28;20278;-87
2022/01/11 01:04:29;;;;;;;;;;;-1.00;99.90;;;;;;5080433;28;19963;-87
2022/01/11 01:06:54;;;;;;;;;;;-1.00;99.90;;;;;;5097392;28;19971;-87
2022/01/11 01:09:20;;;;;;;;;;;-0.90;99.90;;;;;;5080719;28;20358;-87
2022/01/11 01:11:46;;;;;;;;;;;-1.00;99.90;;;;;;5097055;28;19920;-87
2022/01/11 01:14:12;;;;;;;;;;;-1.00;99.90;;;;;;5097216;28;20007;-87
2022/01/11 01:16:37;;;;;;;;;;;-1.00;99.90;;;;;;5114083;28;19926;-87
2022/01/11 01:19:03;;;;;;;;;;;-0.90;99.90;;;;;;5097128;28;20277;-86
2022/01/11 01:21:36;;;;;;;;;;;-0.90;99.90;;;;;;5080335;28;19974;-87
2022/01/11 01:24:02;;;;;;;;;;;-0.90;99.90;;;;;;5081164;28;20068;-87
2022/01/11 01:26:27;;;;;;;;;;;-1.00;99.90;;;;;;5096822;28;20026;-87
2022/01/11 01:28:53;;;;;;;;;;;-0.80;99.90;;;;;;5097206;28;19920;-87
2022/01/11 01:31:19;;;;;;;;;;;-0.80;99.90;;;;;;5079381;28;19920;-87
2022/01/11 01:33:45;;;;;;;;;;;-0.80;99.90;;;;;;5096820;28;19931;-87
2022/01/11 01:36:11;;;;;;;;;;;-0.80;99.90;;;;;;5096969;28;20014;-87
2022/01/11 01:38:37;;;;;;;;;;;-0.70;99.90;;;;;;5097033;28;19920;-87
2022/01/11 01:41:12;;;;;;;;;;;-0.90;99.90;;;;;;5096657;28;19919;-87
2022/01/11 01:43:38;;;;;;;;;;;-0.80;99.90;;;;;;5081179;28;20011;-88
2022/01/11 01:46:03;;;;;;;;;;;-0.80;99.90;;;;;;5079542;28;19962;-87
2022/01/11 01:48:29;;;;;;;;;;;-0.70;99.90;;;;;;5096372;28;19971;-87
2022/01/11 01:50:55;;;;;;;;;;;-0.70;99.90;;;;;;5113452;28;19969;-86
2022/01/11 01:53:20;;;;;;;;;;;-0.80;99.90;;;;;;5096311;28;19919;-87
2022/01/11 01:55:51;;;;;;;;;;;-0.90;99.90;;;;;;5079836;28;20018;-87
2022/01/11 01:58:18;;;;;;;;;;;-0.80;99.90;;;;;;5079868;28;19919;-87
2022/01/11 02:00:50;;;;;;;;;;;-0.70;99.90;;;;;;5096457;28;20423;-87
2022/01/11 02:03:17;;;;;;;;;;;-0.80;99.90;;;;;;5080398;28;20381;-87
2022/01/11 02:05:43;;;;;;;;;;;-0.90;99.90;;;;;;5096217;28;19959;-87
2022/01/11 02:08:08;;;;;;;;;;;-1.00;99.90;;;;;;5079197;28;19955;-87
2022/01/11 02:10:34;;;;;;;;;;;-0.90;99.90;;;;;;5095968;28;19926;-87
2022/01/11 02:13:02;;;;;;;;;;;-0.80;99.90;;;;;;5079443;28;19920;-87
2022/01/11 02:15:28;;;;;;;;;;;-0.70;99.90;;;;;;5079430;28;20358;-87
2022/01/11 02:17:53;;;;;;;;;;;-0.70;99.90;;;;;;5096044;28;19959;-87
2022/01/11 02:20:19;;;;;;;;;;;-0.90;99.90;;;;;;5112946;28;19967;-87
2022/01/11 02:22:44;;;;;;;;;;;-0.70;99.90;;;;;;5079027;28;19927;-87
2022/01/11 02:25:10;;;;;;;;;;;-0.80;99.90;;;;;;5079176;28;20327;-88
2022/01/11 02:27:36;;;;;;;;;;;0.70;99.90;;;;;;5096116;28;19923;-87
2022/01/11 02:30:02;;;;;;;;;;;-0.60;99.90;;;;;;5095928;28;19926;-87
2022/01/11 02:32:28;;;;;;;;;;;-0.60;99.90;;;;;;5078868;28;19920;-87
2022/01/11 02:34:53;;;;;;;;;;;-0.10;99.90;;;;;;5096136;28;19969;-87
2022/01/11 02:37:19;;;;;;;;;;;-0.60;99.90;;;;;;5095819;28;19973;-87
2022/01/11 02:39:45;;;;;;;;;;;0.30;99.90;;;;;;5078819;28;19919;-87
2022/01/11 02:42:10;;;;;;;;;;;-1.00;99.90;;;;;;5095507;28;19980;-87
2022/01/11 02:44:36;;;;;;;;;;;-0.70;99.90;;;;;;5095911;28;20323;-87
2022/01/11 02:47:01;;;;;;;;;;;-0.40;99.90;;;;;;5112257;28;19931;-87
2022/01/11 02:49:27;;;;;;;;;;;0.40;99.90;;;;;;5079074;28;19926;-87
2022/01/11 02:51:53;;;;;;;;;;;-0.70;99.90;;;;;;5095649;28;20376;-87
2022/01/11 02:54:19;;;;;;;;;;;-0.60;99.90;;;;;;5095922;28;20019;-84
2022/01/11 02:56:44;;;;;;;;;;;-0.10;99.90;;;;;;5079137;28;19991;-87
2022/01/11 02:59:10;;;;;;;;;;;-0.50;99.90;;;;;;5079076;28;19923;-87
2022/01/11 03:01:35;;;;;;;;;;;-0.50;99.90;;;;;;5095361;28;19920;-87
2022/01/11 03:04:01;;;;;;;;;;;-0.50;99.90;;;;;;5095850;28;19984;-87
2022/01/11 03:06:26;;;;;;;;;;;-0.50;99.90;;;;;;5095379;28;19924;-87
2022/01/11 03:08:52;;;;;;;;;;;-0.50;99.90;;;;;;5095378;28;19926;-87
2022/01/11 03:11:18;;;;;;;;;;;-0.50;99.90;;;;;;5078039;28;19943;-87
2022/01/11 03:13:44;;;;;;;;;;;-0.60;99.90;;;;;;5078505;28;19974;-87
2022/01/11 03:16:09;;;;;;;;;;;-0.50;99.90;;;;;;5078590;28;19924;-87
2022/01/11 03:18:35;;;;;;;;;;;-0.50;99.90;;;;;;5095700;28;19924;-87
2022/01/11 03:21:00;;;;;;;;;;;-0.40;99.90;;;;;;5112168;28;20293;-87
2022/01/11 03:23:26;;;;;;;;;;;-0.50;99.90;;;;;;5095092;28;19972;-87
2022/01/11 03:25:52;;;;;;;;;;;-0.40;99.90;;;;;;5095101;28;19920;-87
2022/01/11 03:28:17;;;;;;;;;;;-0.20;99.90;;;;;;5078509;28;19930;-88
2022/01/11 03:30:43;;;;;;;;;;;-0.40;99.90;;;;;;5095156;28;19927;-87
2022/01/11 03:33:08;;;;;;;;;;;-0.40;99.90;;;;;;5095205;28;19926;-87
2022/01/11 03:35:35;;;;;;;;;;;-0.30;99.90;;;;;;5095256;28;19923;-87
2022/01/11 03:38:00;;;;;;;;;;;-0.30;99.90;;;;;;5078308;28;19920;-87
2022/01/11 03:40:26;;;;;;;;;;;-0.50;99.90;;;;;;5095362;28;19920;-87
2022/01/11 03:42:51;;;;;;;;;;;-0.60;99.90;;;;;;5078557;28;20350;-87
2022/01/11 03:45:17;;;;;;;;;;;-0.30;99.90;;;;;;5095077;28;20273;-87
2022/01/11 03:47:42;;;;;;;;;;;-0.30;99.90;;;;;;5078077;28;20381;-87
2022/01/11 03:50:09;;;;;;;;;;;0.10;99.90;;;;;;5078297;28;19927;-87
2022/01/11 03:52:35;;;;;;;;;;;-0.30;99.90;;;;;;5094706;28;20373;-87
2022/01/11 03:57:28;;;;;;;;;;;-0.30;99.90;;;;;;5098830;28;19920;-87
2022/01/11 03:59:53;;;;;;;;;;;-0.40;99.90;;;;;;5082400;28;19967;-88
2022/01/11 04:02:19;;;;;;;;;;;0.10;99.90;;;;;;5098301;28;19927;-87
2022/01/11 04:04:52;;;;;;;;;;;0.20;99.90;;;;;;5098396;28;19930;-87
2022/01/11 04:07:21;;;;;;;;;;;0.20;99.90;;;;;;5083014;28;19923;-87
2022/01/11 04:09:47;;;;;;;;;;;0.20;99.90;;;;;;5115601;28;19920;-87
2022/01/11 04:12:13;;;;;;;;;;;0.10;99.90;;;;;;5098551;28;20330;-87
2022/01/11 04:14:39;;;;;;;;;;;0.20;99.90;;;;;;5098316;28;19973;-88
2022/01/11 04:17:04;;;;;;;;;;;0.10;99.90;;;;;;5098725;28;19924;-88
2022/01/11 04:19:30;;;;;;;;;;;0.10;99.90;;;;;;5098246;28;20127;-87
2022/01/11 04:21:55;;;;;;;;;;;0.10;99.90;;;;;;5097926;28;19927;-88
2022/01/11 04:24:21;;;;;;;;;;;-0.10;99.90;;;;;;5081152;28;19920;-87
2022/01/11 04:26:46;;;;;;;;;;;0.10;99.90;;;;;;5098027;28;19984;-87
2022/01/11 04:29:12;;;;;;;;;;;0.10;99.90;;;;;;5081260;28;19926;-88
2022/01/11 04:31:38;;;;;;;;;;;0.00;99.90;;;;;;5081207;28;20373;-87
2022/01/11 04:34:03;;;;;;;;;;;-0.10;99.90;;;;;;5097868;28;19965;-87
2022/01/11 04:36:30;;;;;;;;;;;0.00;99.90;;;;;;5097866;28;19920;-87
2022/01/11 04:38:55;;;;;;;;;;;0.00;99.90;;;;;;5098054;28;19927;-87
2022/01/11 04:41:21;;;;;;;;;;;-0.30;99.90;;;;;;5080831;28;20255;-87
2022/01/11 04:43:46;;;;;;;;;;;0.10;99.90;;;;;;5081114;28;19920;-87
2022/01/11 04:46:12;;;;;;;;;;;-0.10;99.90;;;;;;5080892;28;19920;-87
2022/01/11 04:48:37;;;;;;;;;;;0.00;99.90;;;;;;5114622;28;19923;-88
2022/01/11 04:51:03;;;;;;;;;;;0.00;99.90;;;;;;5080645;28;19972;-87
2022/01/11 04:53:29;;;;;;;;;;;0.10;99.90;;;;;;5114617;28;19920;-87
2022/01/11 04:55:54;;;;;;;;;;;0.00;99.90;;;;;;5097937;28;20270;-87
2022/01/11 04:58:20;;;;;;;;;;;0.10;99.90;;;;;;5097473;28;19920;-87
2022/01/11 05:00:45;;;;;;;;;;;0.00;99.90;;;;;;5080941;28;19931;-88
2022/01/11 05:03:10;;;;;;;;;;;0.00;99.90;;;;;;5097744;28;20405;-87
2022/01/11 05:05:36;;;;;;;;;;;0.30;99.90;;;;;;5080641;28;19926;-87
2022/01/11 05:08:02;;;;;;;;;;;0.10;99.90;;;;;;5080312;28;19946;-87
2022/01/11 05:10:27;;;;;;;;;;;1.90;99.90;;;;;;5097289;28;19942;-87
2022/01/11 05:12:53;;;;;;;;;;;-0.10;99.90;;;;;;5097436;28;19967;-88
2022/01/11 05:15:19;;;;;;;;;;;-0.10;99.90;;;;;;5097280;28;20366;-86
2022/01/11 05:17:44;;;;;;;;;;;-0.10;99.90;;;;;;5114522;28;19924;-87
2022/01/11 05:20:10;;;;;;;;;;;-0.30;99.90;;;;;;5097589;28;19967;-87
2022/01/11 05:22:35;;;;;;;;;;;0.00;99.90;;;;;;5080270;28;19920;-87
2022/01/11 05:25:01;;;;;;;;;;;-0.10;99.90;;;;;;5080070;28;19920;-87
2022/01/11 05:27:30;;;;;;;;;;;-0.20;99.90;;;;;;5080151;28;19967;-87
2022/01/11 05:29:55;;;;;;;;;;;-0.10;99.90;;;;;;5097502;28;19924;-87
2022/01/11 05:32:21;;;;;;;;;;;-0.10;99.90;;;;;;5113614;28;20284;-87
2022/01/11 05:34:46;;;;;;;;;;;-0.10;99.90;;;;;;5080000;28;19973;-87
2022/01/11 05:37:12;;;;;;;;;;;-0.10;99.90;;;;;;5096752;28;19965;-87
2022/01/11 05:39:37;;;;;;;;;;;-0.10;99.90;;;;;;5096858;28;19919;-87
2022/01/11 05:42:06;;;;;;;;;;;-0.10;99.90;;;;;;5096614;28;19919;-86
2022/01/11 05:44:35;;;;;;;;;;;0.00;99.90;;;;;;5080248;28;19920;-86
2022/01/11 05:47:00;;;;;;;;;;;-0.10;99.90;;;;;;5079461;28;20285;-87
2022/01/11 05:49:26;;;;;;;;;;;1.70;99.90;;;;;;5096805;28;19920;-87
2022/01/11 05:51:51;;;;;;;;;;;-0.10;99.90;;;;;;5096430;28;19919;-87
2022/01/11 05:54:17;;;;;;;;;;;-0.30;99.90;;;;;;5113726;28;19924;-87
2022/01/11 05:56:42;;;;;;;;;;;-0.10;99.90;;;;;;5079806;28;20338;-87
2022/01/11 05:59:08;;;;;;;;;;;-0.30;99.90;;;;;;5096259;28;19919;-87
2022/01/11 06:01:34;;;;;;;;;;;0.10;99.90;;;;;;5096469;28;19920;-87
2022/01/11 06:03:59;;;;;;;;;;;-0.20;99.90;;;;;;5096561;28;19920;-87
2022/01/11 06:06:25;;;;;;;;;;;-0.30;99.90;;;;;;5096134;28;19939;-87
2022/01/11 06:08:50;;;;;;;;;;;-0.20;99.90;;;;;;5096424;28;20339;-87
2022/01/11 06:11:16;;;;;;;;;;;-0.10;99.90;;;;;;5079068;28;19920;-87
2022/01/11 06:13:41;;;;;;;;;;;-0.20;99.90;;;;;;5113126;28;19964;-87
2022/01/11 06:16:08;;;;;;;;;;;-0.10;99.90;;;;;;5096327;28;19980;-87
2022/01/11 06:18:34;;;;;;;;;;;-0.10;99.90;;;;;;5078873;28;19920;-87
2022/01/11 06:20:59;;;;;;;;;;;-0.10;99.90;;;;;;5078999;28;19927;-87
2022/01/11 06:23:24;;;;;;;;;;;-0.30;99.90;;;;;;5095809;28;19924;-87
2022/01/11 06:25:50;;;;;;;;;;;-0.30;99.90;;;;;;5079099;28;19930;-87
2022/01/11 06:28:15;;;;;;;;;;;-0.20;99.90;;;;;;5096100;28;19976;-88
2022/01/11 06:30:41;;;;;;;;;;;-0.20;99.90;;;;;;5096329;28;20385;-88
2022/01/11 06:33:08;;;;;;;;;;;1.00;99.90;;;;;;5079914;28;19927;-88
2022/01/11 06:35:33;;;;;;;;;;;-0.30;99.90;;;;;;5079573;28;19920;-88
2022/01/11 06:37:59;;;;;;;;;;;-0.20;99.90;;;;;;5095668;28;19920;-88
2022/01/11 06:40:24;;;;;;;;;;;-0.30;99.90;;;;;;5095761;28;19977;-87
2022/01/11 06:42:53;;;;;;;;;;;-0.40;99.90;;;;;;5095770;28;19919;-88
2022/01/11 06:45:20;;;;;;;;;;;-0.50;99.90;;;;;;5079133;28;19920;-88
2022/01/11 06:47:46;;;;;;;;;;;0.40;99.90;;;;;;5078742;28;20412;-88
2022/01/11 06:50:11;;;;;;;;;;;0.50;99.90;;;;;;5078809;28;19920;-87
2022/01/11 06:52:37;;;;;;;;;;;-0.20;99.90;;;;;;5112568;28;19963;-87
2022/01/11 06:55:03;;;;;;;;;;;-0.30;99.90;;;;;;5078851;28;19978;-87
2022/01/11 06:57:29;;;;;;;;;;;0.80;99.90;;;;;;5079169;28;19942;-88
2022/01/11 06:59:54;;;;;;;;;;;-0.20;99.90;;;;;;5095526;28;20381;-88
2022/01/11 07:02:20;;;;;;;;;;;-0.30;99.90;;;;;;5095675;28;20354;-87
2022/01/11 07:04:45;;;;;;;;;;;1.00;99.90;;;;;;5095657;28;20412;-88
2022/01/11 07:07:11;;;;;;;;;;;-0.40;99.90;;;;;;5078767;28;20434;-88
2022/01/11 07:09:36;;;;;;;;;;;-0.20;99.90;;;;;;5112253;28;19927;-87
2022/01/11 07:12:02;;;;;;;;;;;-0.30;99.90;;;;;;5095273;28;19919;-88
2022/01/11 07:14:27;;;;;;;;;;;-0.10;99.90;;;;;;5078416;28;19920;-88
2022/01/11 07:16:53;;;;;;;;;;;-0.20;99.90;;;;;;5112274;28;19924;-87
2022/01/11 07:19:19;;;;;;;;;;;-0.30;99.90;;;;;;5095237;28;19919;-87
2022/01/11 07:21:44;;;;;;;;;;;-0.50;99.90;;;;;;5095636;28;19919;-88
2022/01/11 07:24:10;;;;;;;;;;;0.90;99.90;;;;;;5095310;28;19920;-87
2022/01/11 07:26:36;;;;;;;;;;;-0.20;99.90;;;;;;5112549;28;19923;-87
2022/01/11 07:29:03;;;;;;;;;;;-0.20;99.90;;;;;;5096448;28;20361;-87
2022/01/11 07:31:29;;;;;;;;;;;-0.20;99.90;;;;;;5082359;28;19920;-87
2022/01/11 07:33:55;;;;;;;;;;;-0.20;99.90;;;;;;5082018;28;19930;-87
2022/01/11 07:36:20;;;;;;;;;;;-0.20;99.90;;;;;;5097980;28;19924;-88
2022/01/11 07:38:45;;;;;;;;;;;-0.30;99.90;;;;;;5081440;28;19963;-88
2022/01/11 07:44:02;;;;;;;;;;;-0.10;99.90;;;;;;5034212;28;19925;-90
2022/01/11 07:46:30;;;;;;;;;;;0.20;99.90;;;;;;5018021;28;19921;-90
2022/01/11 07:48:59;;;;;;;;;;;0.70;99.90;;;;;;5002399;28;19928;-92
2022/01/11 07:51:40;;;;;;;;;;;1.00;99.90;;;;;;5001698;28;19928;-91
2022/01/11 07:54:39;;;;;;;;;;;;;;;;;;;;;
2022/01/11 08:00:31;;;;;;;;;;;0.00;99.90;;;;;;5010386;28;19929;-90
2022/01/11 08:03:17;;;;;;;;;;;0.90;99.90;;;;;;5003448;28;19944;-90
2022/01/11 08:05:45;;;;;;;;;;;0.40;99.90;;;;;;5017931;28;19975;-90
2022/01/11 08:08:23;;;;;;;;;;;;;;;;;;;;;
2022/01/11 08:10:49;;;;;;;;;;;1.20;99.90;;;;;;5019915;28;20378;-86
2022/01/11 08:16:44;;;;;;;;;;;;;;;;;;;;;
2022/01/11 08:19:35;;;;;;;;;;;;;;;;;;;;;
2022/01/11 08:22:19;;;;;;;;;;;0.30;99.90;;;;;;5043845;28;19929;-91
2022/01/11 08:25:08;;;;;;;;;;;0.10;99.90;;;;;;5028647;28;20367;-91
2022/01/11 08:28:03;;;;;;;;;;;0.20;99.90;;;;;;5024834;28;19964;-90
2022/01/11 08:34:08;;;;;;;;;;;;;;;;;;;;;
2022/01/11 08:36:43;;;;;;;;;;;0.00;99.90;;;;;;5019434;28;19924;-93
2022/01/11 08:45:14;;;;;;;;;;;;;;;;;;;;;
2022/01/11 08:47:40;;;;;;;;;;;0.30;99.90;;;;;;5030044;28;19932;-89
2022/01/11 08:50:06;;;;;;;;;;;1.20;99.90;;;;;;5000064;28;19921;-88
2022/01/11 08:52:40;;;;;;;;;;;0.20;99.90;;;;;;5000304;28;19921;-89
2022/01/11 08:55:07;;;;;;;;;;;1.60;99.90;;;;;;5017901;28;19921;-89
2022/01/11 08:57:35;;;;;;;;;;;0.20;99.90;;;;;;5000655;28;20008;-89
2022/01/11 09:00:06;;;;;;;;;;;3.10;99.90;;;;;;5016641;28;20279;-89
2022/01/11 09:02:35;;;;;;;;;;;-0.10;99.90;;;;;;5016399;28;19925;-89
2022/01/11 09:05:03;;;;;;;;;;;1.40;99.90;;;;;;5000675;28;20008;-90
2022/01/11 09:07:32;;;;;;;;;;;0.10;99.90;;;;;;5000240;28;19925;-89
2022/01/11 09:10:04;;;;;;;;;;;0.30;99.90;;;;;;5018144;28;19921;-90
2022/01/11 09:12:32;;;;;;;;;;;0.60;99.90;;;;;;5008427;28;19921;-89
2022/01/11 09:15:03;;;;;;;;;;;0.10;99.90;;;;;;5003057;28;19922;-89
2022/01/11 09:17:39;;;;;;;;;;;;;;;;;;;;;
2022/01/11 09:20:05;;;;;;;;;;;-0.10;99.90;;;;;;5017566;28;19921;-87
2022/01/11 09:22:31;;;;;;;;;;;0.20;99.90;;;;;;4999745;28;19922;-90
2022/01/11 09:24:56;;;;;;;;;;;0.30;99.90;;;;;;5000094;28;19921;-89
2022/01/11 09:27:25;;;;;;;;;;;-0.20;99.90;;;;;;5016342;28;19925;-89
2022/01/11 09:29:53;;;;;;;;;;;0.10;99.90;;;;;;5016112;28;19928;-89
2022/01/11 09:32:26;;;;;;;;;;;1.10;99.90;;;;;;4999598;28;19921;-90
2022/01/11 09:34:52;;;;;;;;;;;1.30;99.90;;;;;;5000407;28;19921;-89
2022/01/11 09:37:22;;;;;;;;;;;0.60;99.90;;;;;;5015683;28;20299;-89
2022/01/11 09:39:50;;;;;;;;;;;1.50;99.90;;;;;;4999707;28;19925;-90
2022/01/11 09:42:21;;;;;;;;;;;0.40;99.90;;;;;;4999500;28;19975;-89
2022/01/11 09:44:47;;;;;;;;;;;0.70;99.90;;;;;;5016193;28;20205;-89
2022/01/11 09:47:15;;;;;;;;;;;0.10;99.90;;;;;;4999394;28;19937;-89
2022/01/11 09:49:41;;;;;;;;;;;-0.20;99.90;;;;;;5015736;28;19929;-89
2022/01/11 09:52:09;;;;;;;;;;;-0.10;99.90;;;;;;4998955;28;19921;-90
2022/01/11 09:54:35;;;;;;;;;;;0.30;99.90;;;;;;5015731;28;19965;-89
2022/01/11 09:57:03;;;;;;;;;;;0.60;99.90;;;;;;4998798;28;19921;-89
2022/01/11 09:59:29;;;;;;;;;;;0.20;99.90;;;;;;4999277;28;19921;-89
2022/01/11 10:01:55;;;;;;;;;;;0.80;99.90;;;;;;5015567;28;19928;-89
2022/01/11 10:04:23;;;;;;;;;;;1.10;99.90;;;;;;4998822;28;19951;-89
2022/01/11 10:06:56;;;;;;;;;;;1.50;99.90;;;;;;4998811;28;19975;-89
2022/01/11 10:09:21;;;;;;;;;;;0.20;99.90;;;;;;4999355;28;19921;-89
2022/01/11 10:11:50;;;;;;;;;;;0.00;99.90;;;;;;4998935;28;20343;-89
2022/01/11 10:14:21;;;;;;;;;;;0.60;99.90;;;;;;4999014;28;19921;-90
2022/01/11 10:16:49;;;;;;;;;;;0.30;99.90;;;;;;5002669;28;20339;-90
2022/01/11 10:19:19;;;;;;;;;;;1.20;99.90;;;;;;4978345;28;19921;-89
2022/01/11 10:21:54;;;;;;;;;;;0.30;99.90;;;;;;4979323;28;20013;-89
2022/01/11 10:24:32;;;;;;;;;;;;;;;;;;;;;
2022/01/11 10:27:01;;;;;;;;;;;0.30;99.90;;;;;;5012042;28;19930;-90
2022/01/11 10:29:41;;;;;;;;;;;0.20;99.90;;;;;;4995741;28;19921;-89
2022/01/11 10:32:16;;;;;;;;;;;0.30;99.90;;;;;;4995586;28;19921;-89
2022/01/11 10:34:51;;;;;;;;;;;0.30;99.90;;;;;;4995634;28;19945;-90
2022/01/11 10:37:28;;;;;;;;;;;1.30;99.90;;;;;;4980455;28;19944;-90
2022/01/11 10:39:59;;;;;;;;;;;1.60;99.90;;;;;;4979037;28;19928;-89
2022/01/11 10:42:50;;;;;;;;;;;1.90;99.90;;;;;;5004711;28;19964;-90
2022/01/11 10:45:23;;;;;;;;;;;0.50;99.90;;;;;;5021712;28;20334;-90
2022/01/11 10:47:49;;;;;;;;;;;0.40;99.90;;;;;;5004867;28;19929;-89
2022/01/11 10:50:17;;;;;;;;;;;0.60;99.90;;;;;;5017213;28;19921;-89
2022/01/11 10:52:45;;;;;;;;;;;1.10;99.90;;;;;;5014747;28;20015;-89
2022/01/11 10:55:14;;;;;;;;;;;0.80;99.90;;;;;;4998654;28;19921;-89
2022/01/11 10:57:50;;;;;;;;;;;0.30;99.90;;;;;;5014945;28;19921;-90
2022/01/11 11:00:33;;;;;;;;;;;1.40;99.90;;;;;;5015015;28;19996;-89
2022/01/11 11:03:13;;;;;;;;;;;0.70;99.90;;;;;;5015993;28;19925;-91
2022/01/11 11:05:48;;;;;;;;;;;0.70;99.90;;;;;;5019999;28;19929;-90
2022/01/11 11:08:20;;;;;;;;;;;0.80;99.90;;;;;;5018536;28;20067;-90
2022/01/11 11:10:51;;;;;;;;;;;3.10;99.90;;;;;;5019366;28;19921;-90
2022/01/11 11:13:30;;;;;;;;;;;1.10;99.90;;;;;;5034938;28;19921;-90
2022/01/11 11:15:59;;;;;;;;;;;1.40;99.90;;;;;;5019515;28;20414;-91
2022/01/11 11:18:55;;;;;;;;;;;3.10;99.90;;;;;;5018884;28;19928;-90
2022/01/11 11:21:32;;;;;;;;;;;2.70;99.90;;;;;;5009983;28;20297;-90
2022/01/11 11:24:19;;;;;;;;;;;3.00;99.90;;;;;;5018623;28;19921;-89
2022/01/11 11:27:15;;;;;;;;;;;3.00;99.90;;;;;;5034723;28;19975;-91
2022/01/11 11:30:01;;;;;;;;;;;3.80;99.90;;;;;;5032198;28;20093;-92
2022/01/11 11:32:42;;;;;;;;;;;4.30;99.90;;;;;;5017986;28;19924;-91
2022/01/11 11:35:29;;;;;;;;;;;;;;;;;;;;;
2022/01/11 11:38:01;;;;;;;;;;;6.30;99.90;;;;;;5020606;28;19921;-91
2022/01/11 11:40:46;;;;;;;;;;;4.80;99.90;;;;;;5018694;28;19921;-92
2022/01/11 11:43:12;;;;;;;;;;;3.30;99.90;;;;;;5017688;28;19979;-89
2022/01/11 11:45:46;;;;;;;;;;;4.90;99.90;;;;;;5001569;28;19964;-90
2022/01/11 11:48:18;;;;;;;;;;;3.60;99.90;;;;;;5000737;28;19979;-90
2022/01/11 11:50:57;;;;;;;;;;;;;;;;;;;;;
2022/01/11 11:53:43;;;;;;;;;;;4.20;99.90;;;;;;4997775;28;19922;-90
2022/01/11 11:56:15;;;;;;;;;;;3.80;99.90;;;;;;4977584;28;19953;-91
2022/01/11 11:58:47;;;;;;;;;;;4.00;99.90;;;;;;4962526;28;20364;-89
2022/01/11 12:01:28;;;;;;;;;;;3.60;99.90;;;;;;4980052;28;20406;-90
2022/01/11 12:03:54;;;;;;;;;;;2.70;99.90;;;;;;4988924;28;19925;-89
2022/01/11 12:06:34;;;;;;;;;;;3.50;99.90;;;;;;4972466;28;19967;-88
2022/01/11 12:09:41;;;;;;;;;;;2.80;99.90;;;;;;4974512;28;19933;-90
2022/01/11 12:12:16;;;;;;;;;;;4.10;99.90;;;;;;5026118;28;19921;-90
2022/01/11 12:14:44;;;;;;;;;;;3.40;99.90;;;;;;5001670;28;20004;-89
2022/01/11 12:17:16;;;;;;;;;;;4.10;99.90;;;;;;5001186;28;19921;-90
2022/01/11 12:19:54;;;;;;;;;;;3.40;99.90;;;;;;5017082;28;19921;-89
2022/01/11 12:22:21;;;;;;;;;;;3.30;99.90;;;;;;5001927;28;19989;-91
2022/01/11 12:24:47;;;;;;;;;;;3.20;99.90;;;;;;4998222;28;19927;-89
2022/01/11 12:27:23;;;;;;;;;;;;;;;;;;;;;
2022/01/11 12:29:55;;;;;;;;;;;3.50;99.90;;;;;;4992042;28;19922;-90
2022/01/11 12:32:26;;;;;;;;;;;3.40;99.90;;;;;;4990664;28;19922;-90
2022/01/11 12:35:12;;;;;;;;;;;;;;;;;;;;;
2022/01/11 12:37:44;;;;;;;;;;;3.50;99.90;;;;;;5004791;28;19925;-90
2022/01/11 12:40:48;;;;;;;;;;;3.50;99.90;;;;;;4986749;28;19921;-89
2022/01/11 12:43:40;;;;;;;;;;;;;;;;;;;;;
2022/01/11 12:46:34;;;;;;;;;;;3.80;99.90;;;;;;5027165;28;20287;-90
2022/01/11 12:49:00;;;;;;;;;;;4.50;99.90;;;;;;5043337;28;19956;-88
2022/01/11 12:51:31;;;;;;;;;;;4.20;99.90;;;;;;5027777;28;20384;-89
2022/01/11 12:54:10;;;;;;;;;;;3.50;99.90;;;;;;5039208;28;19920;-91
2022/01/11 12:56:54;;;;;;;;;;;;;;;;;;;;;
2022/01/11 12:59:22;;;;;;;;;;;2.80;99.90;;;;;;5035586;28;19921;-90
2022/01/11 13:02:09;;;;;;;;;;;;;;;;;;;;;
2022/01/11 13:05:12;;;;;;;;;;;;;;;;;;;;;
2022/01/11 13:07:54;;;;;;;;;;;;;;;;;;;;;
2022/01/11 13:10:20;;;;;;;;;;;3.20;99.90;;;;;;5036005;28;19943;-91
2022/01/11 13:13:03;;;;;;;;;;;3.80;99.90;;;;;;5019243;28;20329;-89
2022/01/11 13:15:36;;;;;;;;;;;3.00;99.90;;;;;;5019280;28;19921;-90
2022/01/11 13:18:09;;;;;;;;;;;2.90;99.90;;;;;;5019440;28;19928;-90
2022/01/11 13:20:38;;;;;;;;;;;3.00;99.90;;;;;;5019683;28;19924;-90
2022/01/11 13:25:54;;;;;;;;;;;2.80;99.90;;;;;;5020436;28;19924;-92
2022/01/11 13:28:52;;;;;;;;;;;3.90;99.90;;;;;;5001410;28;19978;-90
2022/01/11 13:31:36;;;;;;;;;;;2.90;99.90;;;;;;5014325;28;19991;-90
2022/01/11 13:37:15;;;;;;;;;;;3.00;99.90;;;;;;5014772;28;19966;-90
2022/01/11 13:39:53;;;;;;;;;;;;;;;;;;;;;
2022/01/11 13:42:19;;;;;;;;;;;2.30;99.90;;;;;;5016603;28;19929;-91
2022/01/11 13:44:48;;;;;;;;;;;4.70;99.90;;;;;;5015472;28;19921;-90
2022/01/11 13:47:16;;;;;;;;;;;3.40;99.90;;;;;;4999730;28;20016;-90
2022/01/11 13:49:45;;;;;;;;;;;3.80;99.90;;;;;;4999753;28;20000;-90
2022/01/11 13:52:19;;;;;;;;;;;3.20;99.90;;;;;;4999549;28;19944;-91
2022/01/11 13:54:51;;;;;;;;;;;3.20;99.90;;;;;;4994565;28;19921;-91
2022/01/11 13:57:22;;;;;;;;;;;3.90;99.90;;;;;;4993064;28;20340;-90
2022/01/11 13:59:57;;;;;;;;;;;3.80;99.90;;;;;;4988926;28;19988;-90
2022/01/11 14:02:29;;;;;;;;;;;3.40;99.90;;;;;;5029674;28;20352;-90
2022/01/11 14:05:01;;;;;;;;;;;3.40;99.90;;;;;;4993226;28;19988;-90
2022/01/11 14:07:32;;;;;;;;;;;3.40;99.90;;;;;;5015776;28;19975;-89
2022/01/11 14:10:09;;;;;;;;;;;3.50;99.90;;;;;;5015603;28;19920;-90
2022/01/11 14:12:54;;;;;;;;;;;;;;;;;;;;;
2022/01/11 14:15:21;;;;;;;;;;;3.50;99.90;;;;;;5020761;28;19943;-89
2022/01/11 14:17:49;;;;;;;;;;;3.80;99.90;;;;;;4998152;28;19928;-90
2022/01/11 14:20:27;;;;;;;;;;;3.30;99.90;;;;;;4998650;28;19925;-89
2022/01/11 14:22:58;;;;;;;;;;;3.40;99.90;;;;;;4981868;28;20335;-90
2022/01/11 14:25:27;;;;;;;;;;;4.10;99.90;;;;;;4999616;28;20391;-90
2022/01/11 14:28:05;;;;;;;;;;;3.20;99.90;;;;;;4987957;28;19929;-89
2022/01/11 14:30:43;;;;;;;;;;;3.40;99.90;;;;;;5006670;28;20346;-90
2022/01/11 14:33:24;;;;;;;;;;;3.40;99.90;;;;;;4996938;28;19921;-91
2022/01/11 14:35:58;;;;;;;;;;;3.40;99.90;;;;;;5047875;28;19964;-88
2022/01/11 14:38:41;;;;;;;;;;;3.30;99.90;;;;;;5025039;28;19920;-90
2022/01/11 14:41:06;;;;;;;;;;;3.30;99.90;;;;;;4996897;28;19925;-91
2022/01/11 14:43:45;;;;;;;;;;;;;;;;;;;;;
2022/01/11 14:46:27;;;;;;;;;;;3.20;99.90;;;;;;5020440;28;19921;-90
2022/01/11 14:49:00;;;;;;;;;;;3.30;99.90;;;;;;4982027;28;20269;-90
2022/01/11 14:51:34;;;;;;;;;;;3.40;99.90;;;;;;4990053;28;21130;-90
2022/01/11 14:54:02;;;;;;;;;;;4.50;99.90;;;;;;4990293;28;19922;-89
2022/01/11 14:56:31;;;;;;;;;;;3.20;99.90;;;;;;4987177;28;20406;-90
2022/01/11 14:58:59;;;;;;;;;;;4.00;99.90;;;;;;4997115;28;20026;-89
2022/01/11 15:01:35;;;;;;;;;;;3.60;99.90;;;;;;4994148;28;20007;-89
2022/01/11 15:04:23;;;;;;;;;;;4.60;99.90;;;;;;4976901;28;20016;-90
2022/01/11 15:06:53;;;;;;;;;;;3.20;99.90;;;;;;4981202;28;20028;-89
2022/01/11 15:09:22;;;;;;;;;;;3.00;99.90;;;;;;4998549;28;19922;-89
2022/01/11 15:11:55;;;;;;;;;;;3.20;99.90;;;;;;5001476;28;19921;-89
2022/01/11 15:14:24;;;;;;;;;;;3.40;99.90;;;;;;4983093;28;19921;-89
2022/01/11 15:16:50;;;;;;;;;;;4.00;99.90;;;;;;4979695;28;19968;-89
2022/01/11 15:19:20;;;;;;;;;;;4.10;99.90;;;;;;4978384;28;20321;-90
2022/01/11 15:21:46;;;;;;;;;;;3.60;99.90;;;;;;4978567;28;19980;-90
2022/01/11 15:24:12;;;;;;;;;;;3.70;99.90;;;;;;4978498;28;19929;-90
2022/01/11 15:26:40;;;;;;;;;;;3.80;99.90;;;;;;4978591;28;19921;-89
2022/01/11 15:29:07;;;;;;;;;;;4.10;99.90;;;;;;4996559;28;19922;-90